Time;durP1;ratioP1;P1;durP2;ratioP2;P2;SDS_P1;SDS_P2;PMS_P1;PMS_P2;Temp;Humidity;BMP_temperature;BMP_pressure;BME280_temperature;BME280_humidity;BME280_pressure;Samples;Min_cycle;Max_cycle;Signal;HPM_P1;HPM_P2
2021/10/30 00:00:27;;;;;;;9.88;6.35;;;;;;;11.77;88.30;100519.38;5055381;28;20379;-71
2021/10/30 00:02:53;;;;;;;8.98;5.70;;;;;;;11.69;88.30;100503.06;5055406;28;20025;-71
2021/10/30 00:05:18;;;;;;;9.40;5.90;;;;;;;11.64;89.03;100512.44;5037411;28;20490;-71
2021/10/30 00:07:43;;;;;;;9.65;6.10;;;;;;;11.65;88.80;100501.91;5055282;28;20021;-71
2021/10/30 00:10:11;;;;;;;10.82;6.03;;;;;;;11.63;88.44;100490.94;5036679;28;20395;-71
2021/10/30 00:12:36;;;;;;;10.52;5.88;;;;;;;11.60;88.69;100490.56;5055164;28;20052;-72
2021/10/30 00:15:03;;;;;;;8.65;5.72;;;;;;;11.57;88.64;100488.38;5055043;28;20025;-72
2021/10/30 00:17:28;;;;;;;9.40;5.47;;;;;;;11.57;88.74;100488.38;5037185;28;20080;-72
2021/10/30 00:19:53;;;;;;;10.18;5.95;;;;;;;11.56;88.71;100491.94;5054792;28;20494;-71
2021/10/30 00:22:19;;;;;;;9.73;6.00;;;;;;;11.53;88.59;100500.88;5055067;28;20043;-72
2021/10/30 00:24:44;;;;;;;10.85;6.03;;;;;;;11.40;89.33;100499.13;5055039;28;20021;-72
2021/10/30 00:27:10;;;;;;;10.88;6.18;;;;;;;11.28;89.42;100495.53;5054897;28;20025;-72
2021/10/30 00:29:37;;;;;;;13.35;5.97;;;;;;;11.39;89.44;100507.06;5037079;28;20077;-72
2021/10/30 00:32:04;;;;;;;12.52;6.15;;;;;;;11.32;89.77;100501.09;5054824;28;20025;-72
2021/10/30 00:34:29;;;;;;;8.85;6.13;;;;;;;11.28;89.63;100511.84;5036967;28;20125;-72
2021/10/30 00:36:54;;;;;;;11.35;6.00;;;;;;;11.30;89.79;100514.22;5054780;28;20056;-72
2021/10/30 00:39:19;;;;;;;9.32;6.10;;;;;;;11.28;89.42;100517.03;5055142;28;20025;-72
2021/10/30 00:41:49;;;;;;;10.45;6.25;;;;;;;11.29;89.57;100518.59;5054635;28;20021;-72
2021/10/30 00:44:16;;;;;;;10.57;6.68;;;;;;;11.23;89.80;100527.16;5054630;28;20104;-72
2021/10/30 00:46:46;;;;;;;10.85;6.05;;;;;;;11.25;89.97;100522.59;5054478;28;20040;-72
2021/10/30 00:49:13;;;;;;;9.32;5.72;;;;;;;11.21;90.14;100516.19;5055063;28;20087;-72
2021/10/30 00:51:40;;;;;;;9.95;6.03;;;;;;;11.17;90.32;100525.34;5036573;28;20032;-73
2021/10/30 00:54:07;;;;;;;10.32;6.07;;;;;;;11.19;89.82;100518.22;5054222;28;20052;-72
2021/10/30 00:56:35;;;;;;;8.82;6.18;;;;;;;11.11;90.11;100515.81;5053906;28;20028;-72
2021/10/30 00:59:10;;;;;;;11.10;6.18;;;;;;;11.09;90.75;100517.78;5036322;28;20025;-72
2021/10/30 01:01:36;;;;;;;10.80;6.25;;;;;;;11.14;90.24;100515.41;5054914;28;20078;-72
2021/10/30 01:04:03;;;;;;;11.30;6.05;;;;;;;11.11;90.47;100513.22;5054263;28;20418;-72
2021/10/30 01:06:30;;;;;;;9.38;6.18;;;;;;;11.13;89.96;100513.78;5036216;28;20029;-72
2021/10/30 01:08:55;;;;;;;9.48;6.20;;;;;;;11.06;90.59;100507.84;5036752;28;20032;-72
2021/10/30 01:11:20;;;;;;;12.50;6.78;;;;;;;11.12;90.24;100501.06;5054060;28;20021;-72
2021/10/30 01:13:46;;;;;;;7.75;5.88;;;;;;;11.15;89.91;100495.50;5054023;28;20025;-72
2021/10/30 01:16:12;;;;;;;9.25;6.05;;;;;;;11.09;90.26;100504.84;5053979;28;20025;-72
2021/10/30 01:18:38;;;;;;;8.82;5.45;;;;;;;11.14;90.27;100493.94;5054161;28;20417;-72
2021/10/30 01:21:04;;;;;;;8.35;6.05;;;;;;;11.11;90.11;100482.19;5053850;28;20041;-72
2021/10/30 01:23:29;;;;;;;10.43;6.38;;;;;;;11.15;89.73;100498.09;5036021;28;20025;-72
2021/10/30 01:26:00;;;;;;;8.45;5.85;;;;;;;11.13;89.94;100494.91;5053836;28;20055;-72
2021/10/30 01:28:28;;;;;;;10.88;6.10;;;;;;;11.06;90.47;100502.66;5035949;28;20218;-72
2021/10/30 01:30:54;;;;;;;10.02;5.35;;;;;;;11.09;90.09;100491.13;5053755;28;20493;-72
2021/10/30 01:33:19;;;;;;;9.00;5.78;;;;;;;11.11;90.14;100494.31;5053636;28;20029;-71
2021/10/30 01:35:45;;;;;;;7.25;5.40;;;;;;;11.12;90.08;100501.06;5053623;28;20035;-72
2021/10/30 01:38:11;;;;;;;9.98;5.68;;;;;;;11.11;90.01;100492.53;5053528;28;20025;-72
2021/10/30 01:40:41;;;;;;;10.25;5.40;;;;;;;11.07;90.51;100484.34;5053536;28;20033;-73
2021/10/30 01:43:07;;;;;;;9.23;5.45;;;;;;;11.05;90.49;100488.16;5053365;28;20021;-72
2021/10/30 01:45:32;;;;;;;10.50;5.53;;;;;;;11.08;90.67;100477.41;5035734;28;20027;-72
2021/10/30 01:47:59;;;;;;;8.40;5.63;;;;;;;11.20;89.88;100462.09;5035645;28;20032;-72
2021/10/30 01:50:25;;;;;;;9.77;5.57;;;;;;;11.23;89.47;100466.88;5053461;28;20028;-72
2021/10/30 01:52:52;;;;;;;7.97;5.18;;;;;;;11.26;89.28;100467.25;5053415;28;20025;-72
2021/10/30 01:55:19;;;;;;;8.00;5.57;;;;;;;11.25;89.24;100455.34;5053322;28;20108;-73
2021/10/30 01:57:46;;;;;;;8.18;5.30;;;;;;;11.25;89.11;100450.16;5053305;28;20033;-72
2021/10/30 02:00:11;;;;;;;9.10;5.03;;;;;;;11.27;89.09;100442.97;5053256;28;20029;-72
2021/10/30 02:02:37;;;;;;;11.13;5.47;;;;;;;11.09;89.79;100440.19;5053528;28;20025;-72
2021/10/30 02:05:04;;;;;;;7.97;5.40;;;;;;;11.09;89.72;100426.47;5053251;28;20029;-72
2021/10/30 02:07:30;;;;;;;8.70;5.25;;;;;;;11.03;89.49;100415.94;5034389;28;20118;-72
2021/10/30 02:09:55;;;;;;;9.93;5.15;;;;;;;10.98;89.90;100428.66;5035219;28;20064;-72
2021/10/30 02:12:20;;;;;;;9.55;5.50;;;;;;;10.98;89.92;100420.91;5053472;28;20025;-72
2021/10/30 02:14:46;;;;;;;7.68;5.20;;;;;;;10.90;90.44;100428.84;5053520;28;20017;-72
2021/10/30 02:17:11;;;;;;;9.68;6.05;;;;;;;10.82;90.60;100429.84;5053056;28;20025;-72
2021/10/30 02:19:36;;;;;;;8.02;5.40;;;;;;;10.81;90.12;100425.63;5053153;28;20036;-72
2021/10/30 02:22:02;;;;;;;10.05;5.60;;;;;;;10.84;90.60;100425.25;5052986;28;20060;-71
2021/10/30 02:24:28;;;;;;;10.43;5.68;;;;;;;10.79;90.81;100413.94;5053034;28;20163;-72
2021/10/30 02:26:53;;;;;;;9.60;5.20;;;;;;;10.82;90.37;100411.75;5053014;28;20464;-71
2021/10/30 02:29:18;;;;;;;7.22;5.03;;;;;;;10.76;90.44;100411.72;5053043;28;20048;-72
2021/10/30 02:31:43;;;;;;;8.00;5.30;;;;;;;10.68;90.65;100401.59;5053058;28;20021;-72
2021/10/30 02:34:09;;;;;;;9.65;5.30;;;;;;;10.65;91.09;100404.56;5052981;28;20027;-71
2021/10/30 02:36:34;;;;;;;6.90;5.45;;;;;;;10.64;90.88;100402.97;5035091;28;20030;-71
2021/10/30 02:39:00;;;;;;;8.00;5.28;;;;;;;10.56;91.24;100403.97;5052838;28;20025;-71
2021/10/30 02:41:26;;;;;;;10.65;5.63;;;;;;;10.41;91.95;100391.19;5052877;28;20028;-71
2021/10/30 02:43:51;;;;;;;7.53;5.60;;;;;;;10.57;91.52;100395.19;5034980;28;20120;-73
2021/10/30 02:46:17;;;;;;;10.13;5.97;;;;;;;10.61;91.33;100388.63;5052891;28;20451;-71
2021/10/30 02:48:42;;;;;;;9.13;5.90;;;;;;;10.59;91.31;100383.69;5052760;28;20452;-73
2021/10/30 02:51:07;;;;;;;7.45;5.78;;;;;;;10.51;92.04;100370.16;5053302;28;20086;-72
2021/10/30 02:53:33;;;;;;;8.38;6.00;;;;;;;10.44;92.38;100362.38;5052792;28;20032;-72
2021/10/30 02:55:58;;;;;;;9.00;6.45;;;;;;;10.49;92.83;100357.41;5053277;28;20040;-72
2021/10/30 02:58:23;;;;;;;12.43;6.70;;;;;;;10.64;92.39;100353.84;5052730;28;20051;-72
2021/10/30 03:00:49;;;;;;;11.35;6.97;;;;;;;10.67;92.36;100346.50;5053080;28;20108;-72
2021/10/30 03:03:15;;;;;;;10.13;6.32;;;;;;;10.70;92.29;100350.47;5052820;28;20021;-72
2021/10/30 03:05:40;;;;;;;10.07;6.30;;;;;;;10.75;91.88;100354.06;5052720;28;20032;-71
2021/10/30 03:08:05;;;;;;;8.25;6.10;;;;;;;10.87;91.97;100354.25;5052698;28;20527;-72
2021/10/30 03:10:31;;;;;;;12.02;7.15;;;;;;;10.72;92.49;100344.13;5034868;28;20039;-72
2021/10/30 03:12:56;;;;;;;10.75;6.75;;;;;;;10.69;92.74;100347.09;5052702;28;20426;-72
2021/10/30 03:15:22;;;;;;;12.35;7.15;;;;;;;10.70;92.56;100327.22;5052619;28;20028;-72
2021/10/30 03:17:48;;;;;;;9.15;7.07;;;;;;;10.70;93.37;100322.06;5035137;28;20017;-72
2021/10/30 03:20:14;;;;;;;12.30;7.25;;;;;;;10.71;92.93;100324.44;5038198;28;20041;-72
2021/10/30 03:22:39;;;;;;;11.40;6.78;;;;;;;10.76;92.63;100323.84;5056227;28;20057;-72
2021/10/30 03:25:05;;;;;;;11.68;7.05;;;;;;;10.86;92.02;100306.16;5056125;28;20036;-72
2021/10/30 03:27:31;;;;;;;13.32;7.28;;;;;;;10.88;92.10;100313.72;5056394;28;20439;-72
2021/10/30 03:29:56;;;;;;;11.20;7.20;;;;;;;10.97;91.88;100315.09;5056490;28;20464;-72
2021/10/30 03:32:21;;;;;;;12.15;7.72;;;;;;;10.98;91.96;100306.34;5056045;28;20021;-72
2021/10/30 03:34:46;;;;;;;10.50;7.20;;;;;;;10.74;92.67;100300.78;5037998;28;20111;-73
2021/10/30 03:37:12;;;;;;;10.50;7.22;;;;;;;10.77;93.17;100292.63;5055821;28;20437;-72
2021/10/30 03:39:37;;;;;;;13.50;7.30;;;;;;;10.91;92.55;100300.41;5055904;28;20039;-72
2021/10/30 03:42:03;;;;;;;10.68;7.20;;;;;;;10.98;92.44;100290.84;5055741;28;20096;-72
2021/10/30 03:44:29;;;;;;;12.00;7.63;;;;;;;11.02;92.18;100289.44;5037772;28;20479;-72
2021/10/30 03:46:54;;;;;;;12.98;7.50;;;;;;;10.93;92.58;100282.88;5055745;28;20151;-72
2021/10/30 03:49:19;;;;;;;9.95;7.30;;;;;;;11.05;91.95;100292.41;5055713;28;20040;-72
2021/10/30 03:51:45;;;;;;;11.05;7.20;;;;;;;11.17;91.30;100282.25;5055621;28;20036;-72
2021/10/30 03:54:10;;;;;;;10.70;7.53;;;;;;;10.98;92.61;100283.88;5037921;28;20020;-72
2021/10/30 03:56:36;;;;;;;11.93;7.75;;;;;;;10.80;93.08;100276.72;5055819;28;20029;-72
2021/10/30 03:59:01;;;;;;;11.75;8.15;;;;;;;10.93;93.31;100290.63;5037481;28;20021;-72
2021/10/30 04:01:27;;;;;;;10.45;7.95;;;;;;;11.09;92.13;100299.78;5056513;28;20025;-73
2021/10/30 04:03:52;;;;;;;12.07;7.88;;;;;;;11.15;91.55;100301.53;5056658;28;20052;-73
2021/10/30 04:09:39;;;;;;;11.93;7.32;;;;;;;11.02;91.53;100273.94;5056574;28;20039;-73
2021/10/30 04:12:04;;;;;;;13.82;7.10;;;;;;;11.04;91.78;100277.88;5040075;28;20024;-72
2021/10/30 04:14:30;;;;;;;13.82;7.30;;;;;;;11.09;91.50;100285.03;5057876;28;20029;-73
2021/10/30 04:16:55;;;;;;;12.52;7.80;;;;;;;11.03;91.79;100276.31;5055845;28;20021;-73
2021/10/30 04:19:20;;;;;;;11.95;7.32;;;;;;;10.99;92.30;100274.31;5055703;28;20021;-73
2021/10/30 04:21:46;;;;;;;10.75;7.15;;;;;;;11.05;91.75;100268.34;5055291;28;20045;-73
2021/10/30 04:24:11;;;;;;;11.50;8.02;;;;;;;10.99;91.99;100263.97;5056030;28;20021;-73
2021/10/30 04:26:37;;;;;;;11.05;7.22;;;;;;;10.91;92.73;100259.03;5038257;28;20033;-73
2021/10/30 04:29:03;;;;;;;13.52;7.80;;;;;;;10.98;91.93;100250.25;5055421;28;20371;-73
2021/10/30 04:31:29;;;;;;;11.50;7.53;;;;;;;11.16;91.78;100264.34;5056050;28;20108;-73
2021/10/30 04:34:02;;;;;;;10.95;7.55;;;;;;;11.23;91.29;100257.38;5038082;28;20032;-73
2021/10/30 04:36:29;;;;;;;12.48;7.78;;;;;;;11.21;91.61;100242.03;5056317;28;20028;-71
2021/10/30 04:38:56;;;;;;;11.25;7.70;;;;;;;11.15;91.80;100242.06;5057295;28;20021;-72
2021/10/30 04:41:22;;;;;;;10.43;7.18;;;;;;;11.11;91.89;100236.50;5057534;28;20029;-73
2021/10/30 04:43:48;;;;;;;11.52;7.47;;;;;;;11.22;91.91;100232.47;5056924;28;20035;-73
2021/10/30 04:46:15;;;;;;;12.80;7.22;;;;;;;11.25;91.67;100224.34;5056877;28;20029;-73
2021/10/30 04:48:41;;;;;;;12.30;7.10;;;;;;;11.38;91.33;100224.28;5038737;28;20016;-73
2021/10/30 04:51:07;;;;;;;13.68;7.10;;;;;;;11.42;91.44;100219.47;5055516;28;20016;-73
2021/10/30 04:53:37;;;;;;;9.60;7.07;;;;;;;11.47;90.77;100210.09;5055889;28;20031;-72
2021/10/30 04:56:03;;;;;;;11.93;7.32;;;;;;;11.46;90.55;100215.50;5056616;28;20028;-73
2021/10/30 04:58:29;;;;;;;11.48;7.22;;;;;;;11.58;90.62;100206.06;5043825;28;20021;-75
2021/10/30 05:00:54;;;;;;;11.95;7.13;;;;;;;11.52;90.73;100202.50;5063233;28;20032;-76
2021/10/30 05:03:20;;;;;;;11.35;7.95;;;;;;;11.64;90.22;100202.66;5063656;28;20376;-76
2021/10/30 05:05:45;;;;;;;12.50;7.40;;;;;;;11.68;89.80;100197.84;5064260;28;20028;-77
2021/10/30 05:08:10;;;;;;;10.13;7.30;;;;;;;11.70;89.72;100203.63;5064205;28;20021;-73
2021/10/30 05:10:35;;;;;;;11.52;7.40;;;;;;;11.69;89.94;100207.22;5064872;28;20033;-73
2021/10/30 05:13:01;;;;;;;10.57;7.50;;;;;;;11.70;90.11;100203.63;5064766;28;20083;-76
2021/10/30 05:15:26;;;;;;;10.77;7.63;;;;;;;11.55;90.78;100195.34;5064455;28;20468;-77
2021/10/30 05:17:51;;;;;;;13.73;7.82;;;;;;;11.58;90.58;100197.53;5059259;28;20384;-73
2021/10/30 05:20:16;;;;;;;14.10;8.02;;;;;;;11.60;90.64;100192.94;5056670;28;20037;-73
2021/10/30 05:22:42;;;;;;;14.05;7.30;;;;;;;11.67;90.08;100197.06;5037731;28;20029;-73
2021/10/30 05:25:07;;;;;;;11.88;7.28;;;;;;;11.66;89.97;100192.91;5057444;28;20027;-74
2021/10/30 05:27:33;;;;;;;11.27;7.85;;;;;;;11.72;89.98;100186.88;5057638;28;20032;-74
2021/10/30 05:29:58;;;;;;;11.40;7.72;;;;;;;11.72;89.88;100184.28;5056166;28;20067;-73
2021/10/30 05:32:23;;;;;;;12.05;7.70;;;;;;;11.75;89.86;100181.28;5056658;28;20024;-73
2021/10/30 05:34:48;;;;;;;10.90;7.43;;;;;;;11.84;89.18;100186.22;5037347;28;20056;-73
2021/10/30 05:37:14;;;;;;;10.07;7.55;;;;;;;11.85;89.24;100177.44;5054628;28;20489;-72
2021/10/30 05:39:40;;;;;;;13.30;7.50;;;;;;;11.87;89.15;100191.00;5054452;28;20029;-72
2021/10/30 05:42:08;;;;;;;11.10;6.80;;;;;;;11.86;89.21;100172.09;5038406;28;20021;-73
2021/10/30 05:44:33;;;;;;;12.27;6.50;;;;;;;11.93;88.92;100166.84;5054018;28;20035;-73
2021/10/30 05:46:59;;;;;;;11.10;7.25;;;;;;;11.91;89.35;100169.66;5054264;28;20024;-73
2021/10/30 05:49:26;;;;;;;10.05;6.70;;;;;;;11.88;89.50;100156.34;5054581;28;20021;-73
2021/10/30 05:51:51;;;;;;;9.40;6.53;;;;;;;11.91;89.64;100155.91;5053516;28;20395;-73
2021/10/30 05:54:16;;;;;;;12.00;7.38;;;;;;;11.89;89.44;100157.94;5035585;28;20048;-73
2021/10/30 05:56:41;;;;;;;10.88;6.70;;;;;;;11.82;90.02;100145.00;5035561;28;20031;-72
2021/10/30 05:59:07;;;;;;;12.07;7.20;;;;;;;11.85;89.97;100156.72;5053431;28;20022;-72
2021/10/30 06:01:32;;;;;;;10.88;7.28;;;;;;;11.91;89.79;100146.38;5053488;28;20032;-72
2021/10/30 06:03:58;;;;;;;11.45;6.90;;;;;;;11.82;90.03;100147.56;5035473;28;20025;-72
2021/10/30 06:06:23;;;;;;;10.68;6.80;;;;;;;11.73;90.02;100147.03;5053348;28;20581;-72
2021/10/30 06:08:48;;;;;;;11.07;6.90;;;;;;;11.73;90.08;100149.63;5053292;28;20025;-72
2021/10/30 06:11:14;;;;;;;13.02;6.82;;;;;;;11.69;90.04;100140.72;5053396;28;20382;-72
2021/10/30 06:13:39;;;;;;;10.90;7.05;;;;;;;11.74;89.71;100145.28;5035403;28;20482;-72
2021/10/30 06:16:04;;;;;;;13.75;7.45;;;;;;;11.78;89.70;100150.81;5035429;28;20017;-72
2021/10/30 06:18:30;;;;;;;12.52;7.13;;;;;;;11.78;89.93;100138.66;5053132;28;20025;-72
2021/10/30 06:20:55;;;;;;;16.67;7.95;;;;;;;11.72;90.26;100134.31;5053216;28;20136;-72
2021/10/30 06:23:20;;;;;;;13.32;7.63;;;;;;;11.70;89.93;100138.91;5053142;28;20467;-71
2021/10/30 06:25:46;;;;;;;12.60;7.60;;;;;;;11.70;90.15;100134.53;5035276;28;20020;-72
2021/10/30 06:28:12;;;;;;;15.32;7.82;;;;;;;11.68;90.43;100135.72;5035273;28;20042;-72
2021/10/30 06:30:37;;;;;;;16.02;7.53;;;;;;;11.61;90.48;100120.25;5053049;28;20021;-72
2021/10/30 06:33:03;;;;;;;14.10;8.05;;;;;;;11.69;90.39;100125.19;5053021;28;20053;-72
2021/10/30 06:35:28;;;;;;;14.57;7.85;;;;;;;11.68;90.65;100121.03;5035962;28;20029;-72
2021/10/30 06:37:55;;;;;;;12.85;7.20;;;;;;;11.68;90.06;100123.59;5035163;28;20440;-72
2021/10/30 06:40:21;;;;;;;12.18;7.35;;;;;;;11.63;90.79;100123.44;5053110;28;20103;-72
2021/10/30 06:42:46;;;;;;;14.55;7.95;;;;;;;11.59;90.52;100130.00;5052900;28;20436;-72
2021/10/30 06:45:11;;;;;;;16.52;7.43;;;;;;;11.66;90.62;100119.63;5053026;28;20031;-72
2021/10/30 06:47:37;;;;;;;13.82;7.65;;;;;;;11.64;90.99;100119.03;5035126;28;20403;-72
2021/10/30 06:50:04;;;;;;;11.52;7.32;;;;;;;11.46;91.08;100120.56;5034988;28;20017;-73
2021/10/30 06:52:38;;;;;;;11.25;7.70;;;;;;;11.50;91.20;100126.09;5052698;28;20033;-72
2021/10/30 06:55:06;;;;;;;13.00;7.43;;;;;;;11.48;91.29;100115.97;5056693;28;20021;-72
2021/10/30 06:57:31;;;;;;;13.55;8.10;;;;;;;11.47;91.37;100118.75;5056572;28;20029;-72
2021/10/30 06:59:57;;;;;;;13.52;7.95;;;;;;;11.40;92.01;100111.03;5057383;28;20033;-72
2021/10/30 07:02:22;;;;;;;15.05;8.75;;;;;;;11.47;91.69;100111.78;5056729;28;20021;-72
2021/10/30 07:04:48;;;;;;;11.50;8.10;;;;;;;11.39;92.03;100103.47;5056549;28;20391;-72
2021/10/30 07:07:13;;;;;;;13.45;7.85;;;;;;;11.45;92.33;100103.44;5056677;28;20034;-73
2021/10/30 07:09:38;;;;;;;12.55;8.23;;;;;;;11.27;92.93;100095.59;5038736;28;20036;-73
2021/10/30 07:12:04;;;;;;;14.90;8.45;;;;;;;11.36;92.42;100096.91;5056342;28;20027;-73
2021/10/30 07:14:29;;;;;;;15.43;8.40;;;;;;;11.36;92.46;100098.72;5056262;28;20459;-73
2021/10/30 07:16:54;;;;;;;14.15;8.77;;;;;;;11.40;92.13;100107.66;5056182;28;20379;-73
2021/10/30 07:19:19;;;;;;;15.55;8.85;;;;;;;11.44;92.21;100104.44;5038284;28;20021;-72
2021/10/30 07:21:45;;;;;;;14.65;8.32;;;;;;;11.40;92.31;100105.06;5056125;28;20051;-72
2021/10/30 07:24:10;;;;;;;13.82;8.40;;;;;;;11.30;92.64;100100.34;5056416;28;20418;-73
2021/10/30 07:26:36;;;;;;;17.40;8.70;;;;;;;11.36;92.89;100103.88;5038244;28;20032;-73
2021/10/30 07:29:01;;;;;;;13.50;8.43;;;;;;;11.40;92.47;100107.66;5056355;28;20016;-73
2021/10/30 07:31:26;;;;;;;12.52;8.27;;;;;;;11.40;92.19;100105.88;5056028;28;20025;-73
2021/10/30 07:33:52;;;;;;;12.55;9.15;;;;;;;11.37;91.99;100097.75;5056442;28;20040;-73
2021/10/30 07:36:17;;;;;;;15.77;8.68;;;;;;;11.42;92.44;100103.06;5055827;28;20025;-73
2021/10/30 07:38:42;;;;;;;14.82;8.45;;;;;;;11.16;92.80;100084.09;5055882;28;20021;-73
2021/10/30 07:41:08;;;;;;;13.43;8.43;;;;;;;11.36;92.98;100085.78;5038494;28;20056;-73
2021/10/30 07:43:33;;;;;;;12.80;8.50;;;;;;;11.38;92.41;100084.56;5055844;28;20086;-75
2021/10/30 07:45:58;;;;;;;11.85;8.45;;;;;;;11.44;92.10;100077.78;5038419;28;20037;-73
2021/10/30 07:48:23;;;;;;;14.25;8.63;;;;;;;11.47;92.22;100077.34;5055707;28;20104;-74
2021/10/30 07:50:49;;;;;;;13.88;8.50;;;;;;;11.55;91.97;100086.66;5056200;28;20056;-73
2021/10/30 07:53:14;;;;;;;11.50;7.65;;;;;;;11.51;92.38;100083.72;5055624;28;20028;-73
2021/10/30 07:55:39;;;;;;;14.07;8.32;;;;;;;11.52;91.96;100093.06;5055627;28;20026;-73
2021/10/30 07:58:05;;;;;;;13.85;8.32;;;;;;;11.51;91.83;100101.81;5055337;28;20060;-73
2021/10/30 08:00:30;;;;;;;14.25;8.40;;;;;;;11.41;92.56;100083.38;5055722;28;20017;-73
2021/10/30 08:02:55;;;;;;;11.52;7.85;;;;;;;11.47;92.16;100067.00;5055704;28;20028;-73
2021/10/30 08:05:20;;;;;;;13.73;8.30;;;;;;;11.50;92.15;100064.00;5056315;28;20024;-73
2021/10/30 08:07:46;;;;;;;13.15;8.00;;;;;;;11.60;91.95;100063.53;5055358;28;20365;-74
2021/10/30 08:10:12;;;;;;;16.20;7.90;;;;;;;11.57;92.09;100054.41;5055262;28;20020;-72
2021/10/30 08:12:37;;;;;;;13.35;7.80;;;;;;;11.59;92.04;100042.03;5055220;28;20028;-73
2021/10/30 08:15:04;;;;;;;11.27;7.68;;;;;;;11.65;92.06;100051.56;5055164;28;20032;-72
2021/10/30 08:17:31;;;;;;;11.57;7.85;;;;;;;11.69;91.58;100052.72;5055022;28;20054;-72
2021/10/30 08:19:56;;;;;;;11.18;7.75;;;;;;;11.72;91.86;100057.47;5054794;28;20036;-73
2021/10/30 08:22:21;;;;;;;12.65;7.90;;;;;;;11.69;91.81;100064.88;5037078;28;20029;-73
2021/10/30 08:24:47;;;;;;;13.77;7.78;;;;;;;11.68;91.83;100056.31;5055103;28;20399;-73
2021/10/30 08:27:16;;;;;;;12.98;7.50;;;;;;;11.69;91.68;100051.91;5054989;28;20031;-72
2021/10/30 08:29:42;;;;;;;11.38;7.95;;;;;;;11.60;92.47;100050.59;5036924;28;20025;-72
2021/10/30 08:32:09;;;;;;;12.15;7.75;;;;;;;11.59;92.16;100049.78;5054744;28;20029;-72
2021/10/30 08:34:34;;;;;;;15.82;8.25;;;;;;;11.61;92.32;100039.25;5054938;28;20059;-74
2021/10/30 08:37:00;;;;;;;12.85;7.43;;;;;;;11.66;91.88;100035.03;5054775;28;20029;-73
2021/10/30 08:39:25;;;;;;;11.38;7.60;;;;;;;11.67;92.21;100031.41;5054884;28;20478;-73
2021/10/30 08:41:50;;;;;;;11.93;7.57;;;;;;;11.55;92.56;100040.09;5037547;28;20037;-74
2021/10/30 08:44:18;;;;;;;12.93;7.63;;;;;;;11.60;92.48;100024.72;5037598;28;20031;-74
2021/10/30 08:46:44;;;;;;;16.08;7.57;;;;;;;11.60;92.39;100027.31;5054672;28;20035;-72
2021/10/30 08:49:10;;;;;;;12.00;7.30;;;;;;;11.54;92.22;100021.19;5054659;28;20025;-74
2021/10/30 08:51:37;;;;;;;10.93;7.03;;;;;;;11.71;92.20;100026.63;5036551;28;20040;-74
2021/10/30 08:54:04;;;;;;;13.10;6.82;;;;;;;11.70;92.12;100012.88;5054282;28;20078;-73
2021/10/30 08:56:29;;;;;;;9.90;6.55;;;;;;;11.70;92.08;100014.69;5054985;28;20072;-74
2021/10/30 08:58:55;;;;;;;12.38;7.07;;;;;;;11.66;92.07;100013.53;5054491;28;20454;-74
2021/10/30 09:01:20;;;;;;;10.75;6.60;;;;;;;11.69;92.40;100021.66;5054443;28;20475;-75
2021/10/30 09:04:01;;;;;;;13.18;6.60;;;;;;;11.68;92.17;100019.25;5054291;28;20017;-75
2021/10/30 09:06:38;;;;;;;12.50;6.88;;;;;;;11.73;92.18;100029.78;5054535;28;20017;-74
2021/10/30 09:09:13;;;;;;;11.55;6.68;;;;;;;11.80;92.11;100020.16;5036520;28;20025;-74
2021/10/30 09:11:40;;;;;;;11.43;6.38;;;;;;;11.77;91.62;100015.44;5054237;28;20029;-77
2021/10/30 09:14:05;;;;;;;11.25;6.50;;;;;;;11.81;91.92;100024.34;5054181;28;20033;-73
2021/10/30 09:16:31;;;;;;;12.93;6.13;;;;;;;11.84;91.27;100012.75;5053787;28;20028;-75
2021/10/30 09:18:56;;;;;;;17.48;6.78;;;;;;;11.87;91.17;100007.97;5054323;28;20061;-76
2021/10/30 09:21:21;;;;;;;11.00;6.47;;;;;;;11.95;90.91;99999.16;5055768;28;20098;-73
2021/10/30 09:23:54;;;;;;;11.18;5.70;;;;;;;11.96;90.25;100018.84;5054035;28;20025;-74
2021/10/30 09:26:22;;;;;;;9.27;5.97;;;;;;;11.94;91.01;100023.47;5053954;28;20017;-73
2021/10/30 09:29:13;;;;;;;10.27;5.80;;;;;;;11.99;91.25;100008.06;5035955;28;20079;-73
2021/10/30 09:31:38;;;;;;;9.75;6.00;;;;;;;12.08;90.80;100004.16;5053763;28;20025;-73
2021/10/30 09:34:08;;;;;;;9.48;5.57;;;;;;;12.13;90.55;100003.53;5053703;28;20379;-74
2021/10/30 09:40:15;;;;;;;7.78;5.13;;;;;;;12.06;91.01;100010.59;5054026;28;20044;-74
2021/10/30 09:42:40;;;;;;;9.68;5.47;;;;;;;11.94;92.02;100006.13;5035763;28;20025;-74
2021/10/30 09:45:07;;;;;;;9.23;5.38;;;;;;;12.00;90.87;100011.44;5053496;28;20039;-72
2021/10/30 09:47:33;;;;;;;8.82;5.60;;;;;;;12.01;91.10;100002.69;5035563;28;20132;-74
2021/10/30 09:49:58;;;;;;;12.13;6.18;;;;;;;12.03;91.30;100018.78;5053444;28;20181;-74
2021/10/30 09:52:27;;;;;;;9.75;5.80;;;;;;;11.99;91.88;99989.94;5053867;28;20061;-74
2021/10/30 09:54:52;;;;;;;9.88;5.35;;;;;;;12.05;91.25;99983.09;5053196;28;20433;-72
2021/10/30 09:57:29;;;;;;;11.80;5.63;;;;;;;12.01;92.03;100007.84;5035417;28;20029;-73
2021/10/30 10:00:01;;;;;;;7.85;5.50;;;;;;;11.98;91.80;100005.69;5053145;28;20511;-74
2021/10/30 10:02:28;;;;;;;9.98;5.82;;;;;;;12.01;91.92;100008.66;5035565;28;20028;-74
2021/10/30 10:04:59;;;;;;;10.20;5.85;;;;;;;12.10;92.19;100003.97;5053822;28;20414;-74
2021/10/30 10:07:26;;;;;;;9.38;5.95;;;;;;;12.01;92.42;100000.09;5054619;28;20021;-72
2021/10/30 10:09:52;;;;;;;10.63;6.20;;;;;;;12.03;92.07;99991.09;5035371;28;20025;-73
2021/10/30 10:12:17;;;;;;;9.15;5.47;;;;;;;12.06;92.36;100001.03;5053506;28;20032;-73
2021/10/30 10:14:43;;;;;;;9.93;5.50;;;;;;;12.06;92.70;100003.63;5053244;28;20020;-72
2021/10/30 10:17:09;;;;;;;9.05;5.90;;;;;;;12.00;92.34;100001.06;5053644;28;20127;-74
2021/10/30 10:19:36;;;;;;;11.32;6.03;;;;;;;12.04;92.83;99994.47;5053365;28;20537;-71
2021/10/30 10:22:02;;;;;;;9.98;5.38;;;;;;;11.95;92.74;100005.13;5052917;28;20411;-73
2021/10/30 10:24:30;;;;;;;10.35;6.13;;;;;;;12.02;92.31;100009.44;5052923;28;20035;-72
2021/10/30 10:26:58;;;;;;;8.32;5.60;;;;;;;12.01;92.75;99998.28;5053061;28;20086;-72
2021/10/30 10:29:43;;;;;;;10.90;5.93;;;;;;;12.03;92.49;99998.09;5038491;28;20032;-75
2021/10/30 10:32:22;;;;;;;8.60;5.47;;;;;;;12.19;91.99;100000.88;5057331;28;20099;-77
2021/10/30 10:34:48;;;;;;;8.65;5.25;;;;;;;12.12;93.29;99989.00;5060279;28;20029;-76
2021/10/30 10:37:15;;;;;;;11.43;6.25;;;;;;;12.08;92.74;99980.88;5040049;28;20513;-75
2021/10/30 10:39:45;;;;;;;8.35;5.53;;;;;;;12.06;92.91;99982.13;5039799;28;20091;-75
2021/10/30 10:42:13;;;;;;;8.07;5.18;;;;;;;12.10;92.50;99978.06;5058959;28;20056;-75
2021/10/30 10:44:41;;;;;;;9.10;5.45;;;;;;;12.17;92.34;99982.19;5058043;28;20375;-76
2021/10/30 10:47:30;;;;;;;10.02;5.28;;;;;;;12.12;92.38;99978.66;5058092;28;20514;-74
2021/10/30 10:50:30;;;;;;;9.68;5.10;;;;;;;12.18;92.34;99972.59;5039643;28;20029;-76
2021/10/30 10:53:06;;;;;;;10.43;5.80;;;;;;;12.21;92.66;99981.75;5035577;28;20037;-74
2021/10/30 10:55:34;;;;;;;8.85;5.30;;;;;;;12.22;92.36;99968.56;5057321;28;20103;-76
2021/10/30 10:58:02;;;;;;;13.60;5.60;;;;;;;12.23;92.63;99970.16;5039160;28;20482;-77
2021/10/30 11:00:29;;;;;;;11.30;6.18;;;;;;;12.26;92.04;99948.22;5039356;28;20025;-78
2021/10/30 11:02:55;;;;;;;7.78;4.90;;;;;;;12.32;92.25;99957.72;5056953;28;20021;-76
2021/10/30 11:05:21;;;;;;;6.85;5.22;;;;;;;12.40;92.04;99944.47;5039052;28;20107;-77
2021/10/30 11:07:49;;;;;;;8.77;4.60;;;;;;;12.39;91.30;99958.41;5046554;28;20033;-74
2021/10/30 11:10:30;;;;;;;7.05;4.68;;;;;;;12.48;91.63;99936.34;5058116;28;20035;-78
2021/10/30 11:12:59;;;;;;;7.75;5.05;;;;;;;12.52;91.42;99934.13;5056699;28;20053;-76
2021/10/30 11:15:39;;;;;;;8.00;4.82;;;;;;;12.50;91.54;99930.97;5057206;28;20072;-78
2021/10/30 11:18:10;;;;;;;7.93;4.55;;;;;;;12.49;91.48;99929.41;5056673;28;20028;-76
2021/10/30 11:20:42;;;;;;;9.52;4.72;;;;;;;12.54;91.38;99927.69;5056589;28;20053;-74
2021/10/30 11:23:15;;;;;;;8.13;4.35;;;;;;;12.48;91.45;99918.22;5057274;28;20025;-79